Flight Track Log - Related Links

Times and Time Zones

All times are in EDT time to prevent confusion due to time zone crossing. See the SKW5305 flight status page for this flight to view local times or setup timezone preferences in your user account.

Time Position Orientation Groundspeed Altitude Reporting Facility
EDT Latitude Longitude Course Direction KTS MPH feet Rate Location/Type
Tue 08:29:41 PM 47.4392 -122.3083 180° South 150 173 1,100  Level Seattle Center
Tue 08:30:24 PM 47.4089 -122.3117 184° South 157 181 2,200 1,735 Climbing Seattle Center
Tue 08:31:04 PM 47.3753 -122.3128 181° South 173 199 3,500 1,770 Climbing Seattle Center
Tue 08:31:25 PM 47.3581 -122.3136 182° South 189 217 4,000 1,672 Climbing Seattle Center
Tue 08:32:05 PM 47.3233 -122.3094 175° South 184 212 5,200 1,672 Climbing Seattle Center
Tue 08:32:26 PM 47.3061 -122.3094 180° South 195 224 5,700 1,475 Climbing Seattle Center
Tue 08:33:06 PM 47.2667 -122.3081 179° South 202 232 6,700 1,455 Climbing Seattle Center
Tue 08:33:32 PM 47.2369 -122.3083 180° South 214 246 7,300 1,672 Climbing Seattle Center
Tue 08:34:00 PM 46.9791 -122.3858 180° South  Level Estimated
Tue 08:34:07 PM 47.2050 -122.3103 182° South 219 252 8,400  Level Seattle Center
Tue 08:35:00 PM 46.8849 -122.4004 180° South  Level Estimated
Tue 08:35:08 PM 47.1361 -122.3108 180° South 236 272 9,000  Level Seattle Center
Tue 08:36:09 PM 47.0653 -122.3100 180° South 257 296 8,900 246 Descending Seattle Center
Tue 08:37:10 PM 46.9939 -122.3083 179° South 258 297 9,500 590 Climbing Seattle Center
Tue 08:38:11 PM 46.9225 -122.3075 180° South 258 297 10,100 639 Climbing Seattle Center
Tue 08:39:12 PM 46.8439 -122.3114 182° South 262 302 10,800 934 Climbing Seattle Center
Tue 08:40:13 PM 46.7744 -122.3108 180° South 250 288 12,000 984 Climbing Seattle Center
Tue 08:41:14 PM 46.7144 -122.3097 179° South 243 280 12,800 443 Climbing Seattle Center
Tue 08:42:15 PM 46.6419 -122.3117 181° South 263 303 12,900 49 Climbing Seattle Center
Tue 08:43:16 PM 46.5700 -122.3286 189° South 266 306 12,900  Level Seattle Center
Tue 08:44:17 PM 46.4967 -122.3378 185° South 268 308 12,900 65 Level Seattle Center
Tue 08:44:48 PM 46.4481 -122.3497 190° South 266 306 13,000 -98 Climbing Seattle Center
Tue 08:45:18 PM 46.4081 -122.3492 179° South 273 314 12,800 -857 Descending Seattle Center
Tue 08:46:19 PM 46.3344 -122.3639 188° South 271 312 11,700 -1,033 Descending Seattle Center
Tue 08:47:20 PM 46.2617 -122.3769 187° South 266 306 10,700 -885 Descending Seattle Center
Tue 08:48:21 PM 46.1811 -122.3856 184° South 273 314 9,900 -590 Descending Seattle Center
Tue 08:49:22 PM 46.1083 -122.3989 187° South 265 305 9,500 -1,030 Descending Seattle Center
Tue 08:50:35 PM 46.0211 -122.4467 201° Southwest 274 315 7,600 -1,623 Descending Seattle Center
Tue 08:51:24 PM 45.9686 -122.4750 201° Southwest 262 302 6,200 -927 Descending Seattle Center
Tue 08:52:25 PM 45.9006 -122.5069 198° South 258 297 5,900 -149 Descending Seattle Center
Tue 08:53:25 PM 45.8411 -122.5422 202° Southwest 237 273 5,900 47 Level Seattle Center
Tue 08:54:32 PM 45.7594 -122.5794 198° South 253 291 6,000  Climbing Seattle Center
Tue 08:55:27 PM 45.7108 -122.5722 174° South 256 295 5,900 -103 Descending Seattle Center
Tue 08:56:28 PM 45.6719 -122.5028 129° Southeast 234 269 5,800 -393 Descending Seattle Center
Tue 08:57:29 PM 45.6425 -122.4414 124° Southeast 206 237 5,100 -443 Descending Seattle Center
Tue 08:58:30 PM 45.6128 -122.3764 123° Southeast 196 226 4,900 -98 Descending Seattle Center
Tue 08:59:31 PM 45.5822 -122.3131 125° Southeast 194 223 4,900  Level Seattle Center
Tue 09:00:32 PM 45.5539 -122.2519 123° Southeast 190 219 4,900  Level Seattle Center
Tue 09:01:33 PM 45.5142 -122.1983 137° Southeast 205 236 4,900  Level Seattle Center
Tue 09:02:33 PM 45.4525 -122.1761 166° South 199 229 4,900  Level Seattle Center
Tue 09:03:34 PM 45.4542 -122.2386 272° West 165 190 4,900 -295 Level Seattle Center
Tue 09:04:35 PM 45.4786 -122.2975 301° West 171 197 4,300 -793 Descending Seattle Center
Tue 09:05:35 PM 45.5000 -122.3589 296° West 174 200 3,300 -942 Descending Seattle Center
Tue 09:06:36 PM 45.5242 -122.4136 302° West 167 192 2,400 -885 Descending Seattle Center
Tue 09:07:37 PM 45.5478 -122.4739 299° West 171 197 1,500 -885 Descending Seattle Center

Login

Don't have an account? Register now (free) for customized features, flight alerts, and more!